Time;durP1;ratioP1;P1;durP2;ratioP2;P2;SDS_P1;SDS_P2;PMS_P1;PMS_P2;Temp;Humidity;BMP_temperature;BMP_pressure;BME280_temperature;BME280_humidity;BME280_pressure;Samples;Min_cycle;Max_cycle;Signal;HPM_P1;HPM_P2
2023/09/19 00:00:20;;;;;;;;;3.50;0.00;;;;;17.79;59.60;100801.09;5065075;28;45523;-67
2023/09/19 00:02:51;;;;;;;;;3.50;0.75;;;;;17.77;59.53;100805.63;5073565;28;47525;-66
2023/09/19 00:05:17;;;;;;;;;1.00;1.00;;;;;17.70;59.92;100802.47;5071927;28;45219;-67
2023/09/19 00:07:42;;;;;;;;;3.00;1.00;;;;;17.71;59.82;100804.19;5067349;27;45293;-67
2023/09/19 00:10:09;;;;;;;;;2.25;0.00;;;;;17.68;59.82;100814.94;5081351;27;69167;-67
2023/09/19 00:12:35;;;;;;;;;2.00;0.00;;;;;17.65;59.90;100813.34;5077503;28;47023;-67
2023/09/19 00:15:00;;;;;;;;;0.75;0.50;;;;;17.65;59.93;100809.81;5074635;27;45750;-67
2023/09/19 00:17:30;;;;;;;;;1.00;0.00;;;;;17.64;60.10;100811.63;5078020;28;45268;-67
2023/09/19 00:19:55;;;;;;;;;0.00;0.00;;;;;17.62;60.47;100816.16;5072868;27;45405;-66
2023/09/19 00:22:21;;;;;;;;;2.00;1.00;;;;;17.59;60.29;100818.94;5078798;27;45421;-67
2023/09/19 00:24:46;;;;;;;;;2.50;1.00;;;;;17.57;60.25;100822.63;5066582;27;72965;-67
2023/09/19 00:27:11;;;;;;;;;2.00;0.00;;;;;17.57;60.57;100814.69;5081033;27;45381;-67
2023/09/19 00:29:37;;;;;;;;;2.75;0.00;;;;;17.55;60.62;100820.06;5073971;27;73174;-67
2023/09/19 00:32:03;;;;;;;;;1.25;0.00;;;;;17.55;60.64;100817.44;5081797;27;46035;-68
2023/09/19 00:34:29;;;;;;;;;2.00;0.50;;;;;17.55;60.80;100833.31;5083678;27;45891;-67
2023/09/19 00:36:55;;;;;;;;;1.00;0.50;;;;;17.53;61.05;100827.25;5077498;27;45373;-66
2023/09/19 00:39:21;;;;;;;;;0.50;0.00;;;;;17.51;61.08;100825.59;5069094;28;45532;-67
2023/09/19 00:41:47;;;;;;;;;1.50;0.50;;;;;17.46;61.22;100815.28;5071458;28;47273;-67
2023/09/19 00:44:13;;;;;;;;;2.50;0.25;;;;;17.48;61.28;100826.63;5074890;28;45345;-68
2023/09/19 00:46:38;;;;;;;;;3.25;1.00;;;;;17.41;61.52;100820.81;5069968;28;45288;-68
2023/09/19 00:49:03;;;;;;;;;1.75;0.00;;;;;17.41;61.37;100831.41;5074065;28;63949;-67
2023/09/19 00:51:29;;;;;;;;;4.75;0.00;;;;;17.39;61.72;100838.56;5069802;28;67998;-67
2023/09/19 00:53:54;;;;;;;;;0.00;0.00;;;;;17.39;61.77;100830.63;5075720;28;45412;-67
2023/09/19 00:56:20;;;;;;;;;0.00;0.00;;;;;17.38;61.79;100833.34;5080682;28;45826;-66
2023/09/19 00:58:46;;;;;;;;;0.00;0.00;;;;;17.35;61.89;100836.16;5074148;28;62095;-67
2023/09/19 01:01:14;;;;;;;;;0.25;0.25;;;;;17.35;61.92;100846.75;5072252;28;45832;-67
2023/09/19 01:03:40;;;;;;;;;3.00;0.00;;;;;17.33;61.97;100841.53;5075237;28;45477;-66
2023/09/19 01:06:07;;;;;;;;;0.00;0.00;;;;;17.32;62.00;100839.84;5063227;28;45411;-68
2023/09/19 01:08:32;;;;;;;;;0.75;0.25;;;;;17.30;62.18;100836.44;5074011;28;45496;-67
2023/09/19 01:11:28;;;;;;;;;1.25;0.00;;;;;17.27;62.83;100839.22;5073917;28;72036;-67
2023/09/19 01:14:08;;;;;;;;;0.00;0.00;;;;;17.24;63.18;100840.22;5069539;28;45457;-67
2023/09/19 01:17:25;;;;;;;;;2.50;0.25;;;;;17.24;62.69;100837.59;5071029;28;45496;-66
2023/09/19 01:20:15;;;;;;;;;0.75;0.00;;;;;17.22;62.82;100841.25;5049065;28;45597;-67
2023/09/19 01:23:02;;;;;;;;;2.50;0.75;;;;;17.22;63.19;100846.56;5075096;28;45412;-67
2023/09/19 01:25:56;;;;;;;;;1.75;1.00;;;;;17.20;63.34;100848.44;5070001;28;45730;-67
2023/09/19 01:28:36;;;;;;;;;0.75;0.75;;;;;17.19;63.38;100839.66;5060883;28;45447;-67
2023/09/19 01:31:03;;;;;;;;;1.00;0.25;;;;;17.15;64.36;100843.38;5059858;28;45444;-66
2023/09/19 01:33:33;;;;;;;;;0.25;0.00;;;;;17.13;63.83;100847.03;5073238;28;46416;-67
2023/09/19 01:35:59;;;;;;;;;0.75;0.75;;;;;17.09;63.98;100841.06;5073783;28;45459;-67
2023/09/19 01:38:25;;;;;;;;;0.75;0.25;;;;;17.04;63.79;100843.09;5078284;27;45536;-67
2023/09/19 01:40:58;;;;;;;;;1.00;0.00;;;;;17.01;64.60;100841.44;5070402;28;72185;-68
2023/09/19 01:43:30;;;;;;;;;2.75;0.75;;;;;16.96;64.33;100854.03;5079069;28;45515;-68
2023/09/19 01:46:24;;;;;;;;;1.00;0.00;;;;;16.93;64.39;100851.59;5075486;28;45334;-68
2023/09/19 01:49:01;;;;;;;;;1.00;0.00;;;;;16.91;64.24;100858.75;5059132;28;45462;-69
2023/09/19 01:51:34;;;;;;;;;0.00;0.00;;;;;16.87;65.33;100841.31;5076226;28;45176;-66
2023/09/19 01:54:04;;;;;;;;;1.50;0.75;;;;;16.86;65.01;100844.91;5068635;28;45591;-68
2023/09/19 01:56:36;;;;;;;;;0.25;0.00;;;;;16.82;64.47;100851.22;5075565;28;45460;-68
2023/09/19 01:59:09;;;;;;;;;0.75;0.75;;;;;16.78;64.53;100847.03;5076530;28;45384;-68
2023/09/19 02:01:37;;;;;;;;;2.75;1.00;;;;;16.76;64.27;100856.84;5069032;28;45325;-69
2023/09/19 02:04:02;;;;;;;;;0.00;0.00;;;;;16.73;64.62;100855.19;5075225;28;47019;-68
2023/09/19 02:06:28;;;;;;;;;1.50;0.25;;;;;16.78;64.32;100865.53;5073822;28;45291;-68
2023/09/19 02:08:54;;;;;;;;;0.75;0.50;;;;;16.77;64.59;100864.69;5078204;28;45716;-69
2023/09/19 02:11:19;;;;;;;;;0.50;0.00;;;;;16.77;64.29;100864.69;5073948;28;45465;-68
2023/09/19 02:13:45;;;;;;;;;2.00;0.75;;;;;16.76;64.70;100856.84;5080405;28;45778;-67
2023/09/19 02:16:12;;;;;;;;;0.00;0.00;;;;;16.75;64.26;100863.94;5063727;28;67538;-68
2023/09/19 02:18:39;;;;;;;;;1.50;0.50;;;;;16.74;64.38;100866.63;5069351;28;45490;-68
2023/09/19 02:21:06;;;;;;;;;3.00;0.25;;;;;16.73;64.54;100864.91;5079077;28;45406;-69
2023/09/19 02:23:33;;;;;;;;;1.50;0.00;;;;;16.71;64.97;100862.34;5073703;28;45547;-67
2023/09/19 02:26:00;;;;;;;;;2.50;0.50;;;;;16.69;64.45;100867.72;5078501;28;45379;-68
2023/09/19 02:28:29;;;;;;;;;1.75;0.00;;;;;16.68;64.27;100852.81;5076255;28;45448;-68
2023/09/19 02:30:55;;;;;;;;;2.75;0.25;;;;;16.67;64.17;100853.72;5076125;28;45430;-68
2023/09/19 02:33:21;;;;;;;;;3.00;0.75;;;;;16.66;64.21;100862.59;5077744;27;45386;-68
2023/09/19 02:35:46;;;;;;;;;1.75;1.75;;;;;16.65;63.87;100858.22;5070530;28;45276;-68
2023/09/19 02:38:12;;;;;;;;;2.50;0.00;;;;;16.64;63.96;100861.81;5073589;28;45262;-67
2023/09/19 02:40:37;;;;;;;;;4.75;0.50;;;;;16.65;63.98;100858.22;5077473;28;45381;-68
2023/09/19 02:43:04;;;;;;;;;1.50;0.50;;;;;16.65;64.17;100860.03;5074337;28;46098;-68
2023/09/19 02:45:30;;;;;;;;;1.75;0.75;;;;;16.64;64.07;100851.25;5071591;28;45387;-68
2023/09/19 02:47:55;;;;;;;;;0.75;0.25;;;;;16.64;64.28;100859.19;5073909;28;45315;-68
2023/09/19 02:50:21;;;;;;;;;0.50;0.25;;;;;16.65;63.98;100854.75;5059594;28;45347;-67
2023/09/19 02:52:48;;;;;;;;;2.75;0.25;;;;;16.65;64.02;100863.53;5064682;28;45525;-68
2023/09/19 02:55:17;;;;;;;;;2.00;0.75;;;;;16.65;64.31;100860.03;5073940;28;45265;-67
2023/09/19 02:57:56;;;;;;;;;1.50;1.00;;;;;16.63;64.08;100860.09;5077233;28;45412;-66
2023/09/19 03:00:22;;;;;;;;;0.50;0.50;;;;;16.61;64.05;100864.63;5071719;28;45433;-67
2023/09/19 03:02:49;;;;;;;;;1.00;1.00;;;;;16.60;64.27;100854.97;5074319;28;45380;-68
2023/09/19 03:05:15;;;;;;;;;2.50;1.00;;;;;16.59;64.03;100847.09;5071668;28;45862;-68
2023/09/19 03:07:42;;;;;;;;;5.00;0.75;;;;;16.58;63.73;100858.63;5077379;28;45315;-67
2023/09/19 03:10:09;;;;;;;;;3.75;0.75;;;;;16.56;63.77;100852.56;5069210;28;45511;-67
2023/09/19 03:12:34;;;;;;;;;0.50;0.50;;;;;16.56;64.04;100855.22;5075450;28;45743;-67
2023/09/19 03:15:00;;;;;;;;;2.50;0.75;;;;;16.57;63.50;100854.25;5051499;28;45315;-66
2023/09/19 03:17:25;;;;;;;;;3.75;1.75;;;;;16.57;63.87;100852.47;5076207;28;45875;-67
2023/09/19 03:19:51;;;;;;;;;1.50;1.00;;;;;16.56;64.14;100855.22;5075543;28;45477;-67
2023/09/19 03:22:17;;;;;;;;;1.00;0.50;;;;;16.55;63.83;100849.06;5077496;28;45941;-67
2023/09/19 03:24:43;;;;;;;;;0.50;0.00;;;;;16.54;63.57;100847.38;5075418;28;45417;-68
2023/09/19 03:27:10;;;;;;;;;0.75;0.25;;;;;16.55;63.91;100850.84;5077112;28;45264;-67
2023/09/19 03:29:35;;;;;;;;;1.75;0.75;;;;;16.54;63.75;100857.06;5079881;28;45460;-67
2023/09/19 03:32:01;;;;;;;;;2.50;0.75;;;;;16.52;63.93;100858.00;5078149;28;45320;-68
2023/09/19 03:34:27;;;;;;;;;3.75;1.00;;;;;16.54;63.82;100855.28;5073617;28;45379;-67
2023/09/19 03:36:52;;;;;;;;;4.50;1.00;;;;;16.53;63.98;100845.63;5073066;28;45581;-67
2023/09/19 03:39:17;;;;;;;;;2.50;0.25;;;;;16.50;63.49;100851.94;5064152;28;45272;-67
2023/09/19 03:41:43;;;;;;;;;0.75;0.00;;;;;16.50;63.80;100845.78;5064563;28;45285;-67
2023/09/19 03:44:08;;;;;;;;;0.25;0.25;;;;;16.50;64.08;100859.88;5071885;28;70795;-67
2023/09/19 03:46:36;;;;;;;;;1.00;1.00;;;;;16.49;64.17;100852.88;5080821;28;54913;-67
2023/09/19 03:49:01;;;;;;;;;0.00;0.00;;;;;16.49;64.47;100854.66;5068741;28;45522;-69
2023/09/19 03:51:26;;;;;;;;;1.00;0.00;;;;;16.47;64.78;100848.59;5078470;28;68933;-68
2023/09/19 03:53:51;;;;;;;;;2.25;0.25;;;;;16.45;64.32;100850.44;5081022;28;69104;-69
2023/09/19 03:56:17;;;;;;;;;1.25;0.50;;;;;16.42;64.38;100845.34;5073646;28;57972;-69
2023/09/19 03:58:42;;;;;;;;;0.75;0.75;;;;;16.41;64.30;100847.09;5081161;27;45454;-69
2023/09/19 04:01:08;;;;;;;;;1.75;0.75;;;;;16.41;64.66;100846.25;5074890;28;71747;-69
2023/09/19 04:03:46;;;;;;;;;6.25;0.50;;;;;16.38;64.80;100851.69;5079193;28;45334;-69
2023/09/19 04:06:15;;;;;;;;;7.75;0.75;;;;;16.38;64.73;100849.03;5068195;28;45313;-69
2023/09/19 04:08:41;;;;;;;;;0.25;0.25;;;;;16.37;64.92;100842.91;5079798;28;45398;-69
2023/09/19 04:11:06;;;;;;;;;6.50;1.00;;;;;16.37;64.81;100844.69;5075204;28;46852;-69
2023/09/19 04:13:32;;;;;;;;;2.75;1.00;;;;;16.38;65.63;100841.13;5068314;28;45341;-68
2023/09/19 04:15:57;;;;;;;;;0.75;0.00;;;;;16.36;65.13;100838.56;5072907;28;45467;-68
2023/09/19 04:18:23;;;;;;;;;2.00;1.00;;;;;16.36;64.84;100837.69;5079039;28;49555;-70
2023/09/19 04:20:52;;;;;;;;;5.25;1.25;;;;;16.34;65.38;100835.13;5079014;27;46617;-69
2023/09/19 04:23:21;;;;;;;;;3.50;0.75;;;;;16.32;65.12;100835.22;5072771;28;45240;-70
2023/09/19 04:25:46;;;;;;;;;3.25;1.00;;;;;16.32;64.95;100832.59;5074883;28;45472;-70
2023/09/19 04:28:11;;;;;;;;;0.50;0.50;;;;;16.31;65.10;100843.22;5071604;28;53492;-69
2023/09/19 04:30:37;;;;;;;;;1.25;0.00;;;;;16.31;65.11;100849.34;5077195;28;46003;-69
2023/09/19 04:33:03;;;;;;;;;2.00;1.00;;;;;16.30;64.89;100842.34;5070114;27;45500;-69
2023/09/19 04:35:31;;;;;;;;;6.00;1.25;;;;;16.30;65.13;100847.63;5078171;27;45388;-68
2023/09/19 04:37:57;;;;;;;;;0.00;0.00;;;;;16.28;64.99;100846.84;5077665;27;45509;-69
2023/09/19 04:40:24;;;;;;;;;2.75;1.00;;;;;16.28;64.90;100846.84;5080337;27;45303;-69
2023/09/19 04:42:59;;;;;;;;;1.75;1.75;;;;;16.29;65.29;100845.09;5071891;27;45941;-70
2023/09/19 04:45:29;;;;;;;;;2.50;0.00;;;;;16.27;65.46;100839.88;5079715;28;45706;-69
2023/09/19 04:47:56;;;;;;;;;5.50;1.00;;;;;16.25;64.87;100844.34;5078439;28;45647;-69
2023/09/19 04:50:22;;;;;;;;;1.75;0.75;;;;;16.25;65.09;100848.78;5072390;28;46319;-69
2023/09/19 04:52:50;;;;;;;;;1.50;0.75;;;;;16.23;65.30;100853.28;5073885;28;47102;-70
2023/09/19 04:55:17;;;;;;;;;1.00;1.00;;;;;16.20;65.14;100849.03;5069747;28;45318;-69
2023/09/19 04:57:50;;;;;;;;;0.50;0.50;;;;;16.20;65.08;100858.72;5078982;27;45694;-69
2023/09/19 05:00:18;;;;;;;;;2.50;0.50;;;;;16.20;65.15;100867.53;5065926;27;46061;-69
2023/09/19 05:02:44;;;;;;;;;1.50;0.50;;;;;16.20;65.20;100871.91;5077547;28;45626;-69
2023/09/19 05:05:10;;;;;;;;;1.25;1.00;;;;;16.18;65.12;100872.00;5073802;28;45388;-70
2023/09/19 05:07:36;;;;;;;;;5.00;1.00;;;;;16.17;65.03;100874.72;5069898;28;45401;-72
2023/09/19 05:10:05;;;;;;;;;2.00;0.50;;;;;16.13;65.27;100868.75;5075039;28;45295;-68
2023/09/19 05:12:34;;;;;;;;;1.50;0.50;;;;;16.15;65.47;100872.16;5077137;28;45354;-69
2023/09/19 05:15:01;;;;;;;;;1.50;0.25;;;;;16.14;65.42;100873.94;5067516;28;45607;-69
2023/09/19 05:17:26;;;;;;;;;2.50;0.00;;;;;16.11;65.87;100870.56;5079357;28;45315;-69
2023/09/19 05:19:52;;;;;;;;;1.00;0.75;;;;;16.10;65.46;100867.09;5073312;28;45496;-69
2023/09/19 05:22:18;;;;;;;;;1.25;0.50;;;;;16.08;65.46;100876.03;5070249;28;45722;-69
2023/09/19 05:24:47;;;;;;;;;1.00;1.00;;;;;16.07;65.62;100874.31;5073178;28;45300;-70
2023/09/19 05:27:14;;;;;;;;;1.50;0.25;;;;;16.05;65.33;100878.81;5074254;28;47093;-70
2023/09/19 05:29:40;;;;;;;;;1.00;0.50;;;;;16.05;65.62;100878.81;5078679;27;49013;-69
2023/09/19 05:32:05;;;;;;;;;1.75;1.00;;;;;16.06;65.18;100888.41;5076232;27;45585;-70
2023/09/19 05:34:30;;;;;;;;;1.00;1.00;;;;;16.04;65.97;100877.97;5072486;27;45435;-70
2023/09/19 05:36:56;;;;;;;;;4.00;0.75;;;;;16.07;65.64;100884.88;5073070;27;73227;-68
2023/09/19 05:39:22;;;;;;;;;2.25;2.25;;;;;16.07;65.98;100882.22;5071642;28;72222;-72
2023/09/19 05:41:48;;;;;;;;;1.25;1.25;;;;;16.05;65.83;100884.09;5065781;28;45296;-68
2023/09/19 05:44:14;;;;;;;;;2.50;1.00;;;;;16.05;66.02;100890.22;5072485;28;45234;-69
2023/09/19 05:46:39;;;;;;;;;1.75;0.75;;;;;16.04;65.74;100890.28;5070640;28;45406;-67
2023/09/19 05:49:05;;;;;;;;;2.75;0.75;;;;;16.06;65.59;100891.06;5076381;28;45329;-69
2023/09/19 05:51:30;;;;;;;;;1.75;0.75;;;;;16.04;65.84;100898.19;5072191;27;45373;-70
2023/09/19 05:53:56;;;;;;;;;5.50;2.75;;;;;16.03;65.70;100897.34;5072833;28;45289;-69
2023/09/19 05:56:22;;;;;;;;;4.25;1.00;;;;;16.05;65.72;100900.78;5071988;28;44752;-69
2023/09/19 05:58:47;;;;;;;;;2.50;1.00;;;;;16.06;65.68;100902.50;5079159;28;46184;-69
2023/09/19 06:01:13;;;;;;;;;2.00;1.00;;;;;16.06;65.72;100906.91;5072544;28;45416;-72
2023/09/19 06:03:38;;;;;;;;;2.75;0.75;;;;;16.08;65.73;100908.56;5066462;28;45383;-75
2023/09/19 06:06:06;;;;;;;;;1.00;1.00;;;;;16.10;65.49;100908.47;5074644;28;72520;-76
2023/09/19 06:08:32;;;;;;;;;1.25;1.25;;;;;16.11;65.61;100911.06;5078126;28;47010;-72
2023/09/19 06:10:57;;;;;;;;;2.50;1.50;;;;;16.16;65.84;100912.59;5078585;28;45217;-75
2023/09/19 06:13:23;;;;;;;;;3.50;0.50;;;;;16.17;65.40;100919.63;5072527;28;46976;-74
2023/09/19 06:15:49;;;;;;;;;42.25;32.75;;;;;16.19;65.62;100920.41;5074039;28;45560;-73
2023/09/19 06:18:19;;;;;;;;;6.25;2.50;;;;;16.19;65.87;100915.97;5077554;28;45440;-74
2023/09/19 06:20:46;;;;;;;;;1.50;0.25;;;;;16.20;65.64;100920.31;5058995;28;45682;-73
2023/09/19 06:23:12;;;;;;;;;3.75;1.00;;;;;16.23;65.71;100916.66;5070206;28;45559;-73
2023/09/19 06:25:37;;;;;;;;;0.75;0.75;;;;;16.26;65.21;100912.09;5075247;28;45388;-71
2023/09/19 06:28:05;;;;;;;;;3.25;1.75;;;;;16.28;65.33;100920.78;5071221;28;69584;-74
2023/09/19 06:30:31;;;;;;;;;3.00;1.00;;;;;16.31;65.34;100917.16;5066260;28;45304;-71
2023/09/19 06:33:00;;;;;;;;;4.00;3.75;;;;;16.33;65.13;100920.59;5075033;28;45357;-70
2023/09/19 06:35:26;;;;;;;;;3.75;1.75;;;;;16.33;65.57;100918.78;5071968;28;45504;-71
2023/09/19 06:37:52;;;;;;;;;1.50;1.00;;;;;16.35;65.15;100918.72;5078231;28;45335;-71
2023/09/19 06:40:19;;;;;;;;;3.75;1.50;;;;;16.37;65.07;100934.50;5062975;27;45302;-71
2023/09/19 06:42:46;;;;;;;;;2.00;0.00;;;;;16.39;65.13;100922.06;5048931;28;45537;-74
2023/09/19 06:45:18;;;;;;;;;1.00;1.00;;;;;16.41;64.93;100920.22;5071930;28;45582;-72
2023/09/19 06:47:50;;;;;;;;;2.00;0.50;;;;;16.43;65.09;100931.56;5069262;28;46065;-69
2023/09/19 06:50:22;;;;;;;;;2.25;0.50;;;;;16.43;65.46;100927.16;5072626;28;45230;-70
2023/09/19 06:52:49;;;;;;;;;2.00;1.00;;;;;16.46;65.00;100934.06;5067656;28;45378;-73
2023/09/19 06:55:16;;;;;;;;;3.25;1.75;;;;;16.47;64.81;100922.56;5070205;28;45508;-71
2023/09/19 06:57:43;;;;;;;;;3.25;1.75;;;;;16.51;64.98;100929.41;5079807;28;45301;-70
2023/09/19 07:00:15;;;;;;;;;1.75;1.00;;;;;16.54;64.58;100934.53;5075525;28;45454;-70
2023/09/19 07:02:41;;;;;;;;;3.75;1.50;;;;;16.58;64.48;100929.97;5071476;28;46286;-69
2023/09/19 07:05:07;;;;;;;;;2.00;1.00;;;;;16.59;64.50;100929.91;5067552;28;45514;-69
2023/09/19 07:07:34;;;;;;;;;3.75;0.00;;;;;16.62;64.43;100929.72;5066057;28;46251;-69
2023/09/19 07:10:00;;;;;;;;;0.75;0.25;;;;;16.65;64.11;100934.03;5061845;28;45696;-69
2023/09/19 07:12:26;;;;;;;;;2.50;1.00;;;;;16.66;63.92;100939.22;5059974;28;45568;-70
2023/09/19 07:14:51;;;;;;;;;2.00;1.00;;;;;16.68;64.08;100933.88;5070482;28;73074;-70
2023/09/19 07:17:18;;;;;;;;;2.00;1.00;;;;;16.73;63.93;100937.13;5069486;28;45493;-69
2023/09/19 07:19:44;;;;;;;;;3.25;0.75;;;;;16.78;63.58;100928.97;5077064;27;47128;-69
2023/09/19 07:22:09;;;;;;;;;2.00;0.75;;;;;16.84;63.62;100934.00;5070306;28;45363;-73
2023/09/19 07:24:36;;;;;;;;;2.00;1.00;;;;;16.92;63.59;100926.53;5068157;28;73182;-73
2023/09/19 07:27:02;;;;;;;;;60.25;46.00;;;;;16.99;63.21;100929.72;5069821;28;46085;-74
2023/09/19 07:29:27;;;;;;;;;6.00;3.25;;;;;17.02;62.60;100922.47;5077397;28;45236;-77
2023/09/19 07:31:53;;;;;;;;;3.50;1.00;;;;;17.06;62.46;100923.19;5081298;28;45324;-74
2023/09/19 07:34:19;;;;;;;;;3.00;1.00;;;;;17.07;62.65;100922.25;5083278;28;45277;-75
2023/09/19 07:36:47;;;;;;;;;2.50;1.00;;;;;17.11;62.65;100929.09;5079488;28;47295;-73
2023/09/19 07:39:12;;;;;;;;;2.00;0.75;;;;;17.15;62.48;100925.34;5069617;28;45329;-74
2023/09/19 07:41:37;;;;;;;;;1.75;1.50;;;;;17.22;62.05;100932.03;5067670;28;45843;-74
2023/09/19 07:44:03;;;;;;;;;2.75;1.00;;;;;17.27;61.54;100931.81;5072870;28;68088;-75
2023/09/19 07:46:30;;;;;;;;;1.75;1.75;;;;;17.29;61.81;100911.41;5079902;28;45326;-74
2023/09/19 07:48:56;;;;;;;;;2.50;0.50;;;;;17.35;61.37;100921.69;5085579;27;45430;-73
2023/09/19 07:51:22;;;;;;;;;4.75;1.25;;;;;17.39;60.62;100914.44;5075254;27;45282;-75
2023/09/19 07:53:48;;;;;;;;;0.75;0.75;;;;;17.45;61.22;100917.59;5079882;27;65957;-75
2023/09/19 07:56:13;;;;;;;;;2.75;0.00;;;;;17.52;61.19;100922.59;5083787;27;46160;-74
2023/09/19 07:58:41;;;;;;;;;3.00;0.75;;;;;17.57;60.82;100915.25;5077515;27;59908;-74
2023/09/19 08:01:07;;;;;;;;;4.25;1.25;;;;;17.61;60.68;100925.56;5078099;27;45360;-74
2023/09/19 08:03:33;;;;;;;;;2.25;1.00;;;;;17.64;60.62;100928.06;5078953;27;45431;-74
2023/09/19 08:05:59;;;;;;;;;4.75;1.25;;;;;17.68;60.33;100927.91;5083721;27;46537;-73
2023/09/19 08:08:26;;;;;;;;;3.25;0.75;;;;;17.69;60.18;100926.94;5082616;27;45374;-74
2023/09/19 08:10:57;;;;;;;;;2.00;0.50;;;;;17.70;60.42;100926.88;5075771;27;45342;-73
2023/09/19 08:13:24;;;;;;;;;2.50;0.75;;;;;17.69;60.11;100926.94;5080905;27;45410;-73
2023/09/19 08:15:50;;;;;;;;;4.50;1.50;;;;;17.70;59.95;100926.03;5069034;28;46367;-74
2023/09/19 08:18:16;;;;;;;;;1.00;0.75;;;;;17.73;60.60;100923.22;5074283;27;45648;-74
2023/09/19 08:20:46;;;;;;;;;1.50;1.25;;;;;17.73;59.53;100923.22;5084199;27;45404;-74
2023/09/19 08:23:11;;;;;;;;;2.00;1.00;;;;;17.73;60.25;100925.88;5083548;27;45347;-74
2023/09/19 08:25:38;;;;;;;;;1.50;1.00;;;;;17.73;59.97;100929.38;5085535;27;45631;-74
2023/09/19 08:28:08;;;;;;;;;3.00;2.25;;;;;17.73;59.47;100926.72;5080243;27;45256;-73
2023/09/19 08:30:34;;;;;;;;;1.00;0.00;;;;;17.75;59.92;100921.34;5077345;27;45328;-74
2023/09/19 08:33:00;;;;;;;;;2.00;0.50;;;;;17.79;59.77;100922.88;5076843;27;45686;-74
2023/09/19 08:35:26;;;;;;;;;2.00;1.00;;;;;17.81;59.38;100929.81;5067735;28;46111;-74
2023/09/19 08:37:51;;;;;;;;;1.00;1.00;;;;;17.86;59.76;100926.09;5067111;28;45355;-74
2023/09/19 08:40:17;;;;;;;;;1.00;1.00;;;;;17.90;59.72;100927.63;5076908;28;45314;-75
2023/09/19 08:42:53;;;;;;;;;3.25;1.00;;;;;17.93;59.29;100930.13;5070911;28;45312;-74
2023/09/19 08:45:22;;;;;;;;;2.25;1.75;;;;;17.96;59.49;100930.78;5076265;28;46231;-73
2023/09/19 08:48:05;;;;;;;;;1.00;1.00;;;;;18.02;59.13;100934.91;5069772;28;45322;-73
2023/09/19 08:50:31;;;;;;;;;1.50;1.00;;;;;18.06;59.81;100939.09;5078895;28;45438;-74
2023/09/19 08:52:58;;;;;;;;;1.50;0.50;;;;;18.13;59.32;100939.59;5071433;28;45272;-73
2023/09/19 08:55:27;;;;;;;;;5.00;3.75;;;;;18.18;59.86;100938.44;5071687;28;45315;-73
2023/09/19 08:58:00;;;;;;;;;0.25;0.25;;;;;18.24;59.45;100937.22;5081540;27;45568;-74
2023/09/19 09:00:27;;;;;;;;;2.75;1.00;;;;;18.27;59.13;100929.06;5069914;28;45541;-74
2023/09/19 09:02:54;;;;;;;;;1.50;0.50;;;;;18.28;59.53;100928.16;5075346;28;45226;-76
2023/09/19 09:05:22;;;;;;;;;2.00;1.50;;;;;18.37;58.93;100926.78;5074352;28;46084;-75
2023/09/19 09:07:51;;;;;;;;;3.00;1.00;;;;;18.40;58.41;100921.31;5071257;28;45245;-75
2023/09/19 09:10:17;;;;;;;;;2.75;1.00;;;;;18.44;58.79;100932.59;5070203;28;45434;-75
2023/09/19 09:12:43;;;;;;;;;1.25;1.00;;;;;18.44;58.66;100938.75;5076604;28;45504;-75
2023/09/19 09:15:11;;;;;;;;;1.50;1.00;;;;;18.47;58.59;100929.75;5080696;27;46850;-75
2023/09/19 09:17:37;;;;;;;;;4.00;2.25;;;;;18.50;58.48;100926.94;5072206;27;45240;-75
2023/09/19 09:20:05;;;;;;;;;5.75;1.75;;;;;18.54;58.92;100931.97;5075492;27;45325;-75
2023/09/19 09:22:31;;;;;;;;;2.25;1.50;;;;;18.59;58.53;100919.31;5077873;27;45502;-74
2023/09/19 09:25:04;;;;;;;;;6.25;2.00;;;;;18.64;58.46;100919.03;5081699;27;45540;-75
2023/09/19 09:27:31;;;;;;;;;1.00;1.00;;;;;18.68;57.82;100922.38;5081554;27;45273;-75
2023/09/19 09:29:57;;;;;;;;;3.25;0.25;;;;;18.70;58.04;100918.69;5079711;27;45556;-75
2023/09/19 09:32:25;;;;;;;;;1.00;1.00;;;;;18.77;58.19;100930.66;5075344;27;45366;-73
2023/09/19 09:34:55;;;;;;;;;4.00;1.00;;;;;18.82;58.06;100929.56;5074543;27;46291;-74
2023/09/19 09:37:24;;;;;;;;;2.75;2.00;;;;;18.87;57.96;100914.22;5072233;27;45533;-75
2023/09/19 09:39:58;;;;;;;;;3.00;1.00;;;;;18.95;56.95;100918.13;5076603;27;45318;-75
2023/09/19 09:42:39;;;;;;;;;1.75;0.75;;;;;19.01;56.63;100921.38;5080993;27;45563;-74
2023/09/19 09:47:58;;;;;;;;;1.25;1.25;;;;;19.23;57.35;100912.97;5073272;27;45621;-74
2023/09/19 09:50:51;;;;;;;;;1.50;1.00;;;;;19.38;56.85;100914.69;5074303;28;45317;-74
2023/09/19 09:53:31;;;;;;;;;0.00;0.00;;;;;19.55;55.78;100911.03;5070196;28;45232;-74
2023/09/19 09:56:05;;;;;;;;;2.50;1.50;;;;;19.65;55.18;100912.13;5076249;27;45403;-74
2023/09/19 09:58:31;;;;;;;;;1.00;1.00;;;;;19.77;55.69;100917.69;5071645;27;45698;-74
2023/09/19 10:00:57;;;;;;;;;1.50;1.00;;;;;19.82;54.71;100915.59;5075512;27;45483;-75
2023/09/19 10:03:38;;;;;;;;;1.50;1.00;;;;;19.90;54.15;100905.31;5081030;27;45327;-74
2023/09/19 10:06:18;;;;;;;;;0.25;0.00;;;;;19.90;53.92;100900.00;5077441;27;47164;-75
2023/09/19 10:11:39;;;;;;;;;5.00;1.75;;;;;20.03;54.30;100895.63;5074509;27;45552;-74
2023/09/19 10:14:06;;;;;;;;;1.00;1.00;;;;;20.12;53.75;100906.63;5074103;27;45432;-75
2023/09/19 10:16:32;;;;;;;;;1.25;1.00;;;;;20.18;53.18;100899.09;5077855;28;46162;-74
2023/09/19 10:19:01;;;;;;;;;1.75;1.00;;;;;20.23;53.80;100893.47;5080885;27;45406;-73
2023/09/19 10:21:29;;;;;;;;;0.25;0.25;;;;;20.28;51.97;100894.88;5081592;27;45272;-73
2023/09/19 10:23:59;;;;;;;;;1.00;1.00;;;;;20.36;52.70;100888.22;5078455;27;45234;-73
2023/09/19 10:26:26;;;;;;;;;1.25;1.00;;;;;20.47;52.71;100881.25;5069557;28;47359;-74
2023/09/19 10:28:53;;;;;;;;;3.00;1.00;;;;;20.65;52.88;100875.69;5081033;28;45414;-74
2023/09/19 10:31:21;;;;;;;;;1.00;1.00;;;;;20.86;51.95;100876.88;5072648;28;46403;-74
2023/09/19 10:33:48;;;;;;;;;1.50;1.00;;;;;21.05;51.84;100880.94;5075888;27;45335;-73
2023/09/19 10:36:14;;;;;;;;;1.00;1.00;;;;;21.17;51.37;100882.75;5077722;28;46145;-75
2023/09/19 10:38:43;;;;;;;;;3.00;0.00;;;;;21.28;51.61;100889.16;5076795;27;45497;-77
2023/09/19 10:41:10;;;;;;;;;0.50;0.00;;;;;21.35;51.19;100885.09;5074117;28;45494;-74
2023/09/19 10:43:38;;;;;;;;;5.00;1.00;;;;;21.41;50.74;100884.69;5075760;28;46043;-73
2023/09/19 10:46:10;;;;;;;;;2.00;1.00;;;;;21.43;50.34;100877.44;5067432;28;46144;-85
2023/09/19 10:48:36;;;;;;;;;4.75;0.75;;;;;21.39;50.14;100871.47;5078204;28;45475;-74
2023/09/19 10:51:12;;;;;;;;;2.50;2.00;;;;;21.37;49.49;100876.06;5064371;27;67447;-77
2023/09/19 10:53:48;;;;;;;;;2.75;1.00;;;;;21.33;49.94;100871.88;5062887;28;45237;-76
2023/09/19 10:56:37;;;;;;;;;3.25;0.75;;;;;21.29;48.82;100872.22;5070015;28;46457;-71
2023/09/19 10:59:13;;;;;;;;;4.50;2.00;;;;;21.28;48.38;100878.50;5070135;27;45478;-75
2023/09/19 11:01:50;;;;;;;;;1.00;1.00;;;;;21.31;49.07;100867.66;5069766;28;45511;-75
2023/09/19 11:04:31;;;;;;;;;1.50;1.50;;;;;21.27;48.71;100879.47;5076705;28;45454;-73
2023/09/19 11:07:10;;;;;;;;;1.50;0.25;;;;;21.21;48.99;100884.25;5070921;28;45374;-73
2023/09/19 11:09:55;;;;;;;;;1.25;0.00;;;;;21.18;49.21;100887.13;5067152;27;45760;-79
2023/09/19 11:12:35;;;;;;;;;3.50;1.50;;;;;21.22;48.55;100883.28;5074688;28;45344;-75
2023/09/19 11:15:05;;;;;;;;;1.25;0.50;;;;;21.28;48.90;100881.16;5068655;28;45315;-73
2023/09/19 11:17:31;;;;;;;;;4.50;1.00;;;;;21.36;49.19;100879.66;5078729;28;46334;-79
2023/09/19 11:22:53;;;;;;;;;2.25;1.25;;;;;21.58;48.26;100871.06;5067943;28;45310;-79
2023/09/19 11:25:30;;;;;;;;;3.00;1.00;;;;;21.66;47.54;100865.19;5076848;28;45227;-79
2023/09/19 11:28:08;;;;;;;;;1.25;1.25;;;;;21.73;46.33;100871.75;5071566;27;46367;-78
2023/09/19 11:30:38;;;;;;;;;3.50;2.00;;;;;21.83;48.00;100852.44;5079546;27;45460;-83
2023/09/19 11:33:23;;;;;;;;;2.00;1.25;;;;;21.90;48.28;100865.22;5074194;28;45353;-82
2023/09/19 11:36:01;;;;;;;;;1.75;0.25;;;;;21.94;48.21;100849.88;5072203;28;45522;-83
2023/09/19 11:38:49;;;;;;;;;1.75;1.75;;;;;22.02;48.17;100868.78;5072047;28;46341;-83